Time;durP1;ratioP1;P1;durP2;ratioP2;P2;SDS_P1;SDS_P2;PMS_P1;PMS_P2;Temp;Humidity;BMP_temperature;BMP_pressure;BME280_temperature;BME280_humidity;BME280_pressure;Samples;Min_cycle;Max_cycle;Signal;HPM_P1;HPM_P2
2023/01/02 00:01:02;;;;;;;3.83;1.10;;;;;;;13.80;90.90;100595.84;5028224;28;20041;-70
2023/01/02 00:03:28;;;;;;;1.30;0.90;;;;;;;13.92;90.41;100596.31;5029452;28;20029;-71
2023/01/02 00:05:54;;;;;;;2.50;0.98;;;;;;;13.83;91.24;100584.25;5027514;28;20040;-71
2023/01/02 00:08:19;;;;;;;2.35;1.05;;;;;;;13.54;92.90;100581.38;5029397;28;20494;-70
2023/01/02 00:10:45;;;;;;;1.92;1.20;;;;;;;13.61;92.75;100590.72;5030208;28;20264;-71
2023/01/02 00:13:11;;;;;;;2.70;1.50;;;;;;;13.76;92.10;100597.75;5028427;28;20060;-71
2023/01/02 00:15:36;;;;;;;2.83;1.33;;;;;;;13.66;93.33;100588.41;5013159;28;20120;-70
2023/01/02 00:18:03;;;;;;;6.28;1.10;;;;;;;13.69;93.98;100582.25;5030383;28;20383;-70
2023/01/02 00:20:28;;;;;;;1.85;0.95;;;;;;;13.72;94.07;100575.31;5030233;28;20035;-71
2023/01/02 00:22:55;;;;;;;2.50;1.02;;;;;;;13.71;94.10;100569.13;5029812;28;20116;-70
2023/01/02 00:25:20;;;;;;;1.40;0.95;;;;;;;13.68;94.35;100571.81;5029720;28;20403;-71
2023/01/02 00:27:45;;;;;;;4.30;1.30;;;;;;;13.64;94.95;100550.13;5029808;28;20095;-70
2023/01/02 00:30:11;;;;;;;1.52;1.23;;;;;;;13.71;94.51;100552.88;5028870;28;20577;-70
2023/01/02 00:32:36;;;;;;;3.13;1.42;;;;;;;13.78;94.88;100544.03;5030132;28;20036;-71
2023/01/02 00:35:02;;;;;;;1.33;1.17;;;;;;;13.84;94.12;100545.22;5030551;28;20037;-71
2023/01/02 00:37:27;;;;;;;2.97;1.20;;;;;;;13.72;93.59;100535.50;5048483;28;20029;-70
2023/01/02 00:39:53;;;;;;;4.25;1.75;;;;;;;13.65;94.61;100534.66;5028523;28;20063;-71
2023/01/02 00:42:18;;;;;;;1.98;1.33;;;;;;;13.42;96.42;100537.59;5027600;28;20490;-71
2023/01/02 00:44:44;;;;;;;1.42;0.98;;;;;;;13.35;97.32;100518.63;5029532;28;20033;-71
2023/01/02 00:47:09;;;;;;;8.73;2.28;;;;;;;13.12;98.69;100510.75;5011929;28;20490;-71
2023/01/02 00:49:34;;;;;;;2.20;1.30;;;;;;;13.25;98.51;100501.19;5027146;28;20522;-71
2023/01/02 00:52:00;;;;;;;2.60;1.55;;;;;;;13.32;98.83;100500.44;5013087;28;20037;-71
2023/01/02 00:54:25;;;;;;;4.30;1.50;;;;;;;13.31;98.73;100491.56;5029655;28;20036;-71
2023/01/02 00:56:51;;;;;;;2.72;1.13;;;;;;;13.35;99.01;100483.47;5028842;28;20037;-71
2023/01/02 00:59:16;;;;;;;2.17;1.40;;;;;;;13.48;98.19;100471.97;5027566;28;20041;-71
2023/01/02 01:01:42;;;;;;;3.55;1.40;;;;;;;13.62;97.08;100476.66;5029727;28;20033;-71
2023/01/02 01:04:07;;;;;;;2.72;1.25;;;;;;;13.56;97.05;100464.66;5026210;28;20044;-71
2023/01/02 01:06:33;;;;;;;8.68;1.52;;;;;;;13.46;98.48;100459.97;5028298;28;20120;-70
2023/01/02 01:08:59;;;;;;;2.90;2.00;;;;;;;13.51;98.28;100454.22;5029302;28;20455;-71
2023/01/02 01:11:25;;;;;;;3.70;1.40;;;;;;;13.40;98.67;100446.03;5029409;28;20586;-71
2023/01/02 01:13:51;;;;;;;2.17;1.35;;;;;;;13.47;98.53;100431.75;5011333;28;20542;-71
2023/01/02 01:16:17;;;;;;;4.47;1.70;;;;;;;13.65;98.04;100427.19;5029284;28;20052;-71
2023/01/02 01:18:43;;;;;;;6.75;1.80;;;;;;;13.55;98.18;100430.63;5016319;28;20109;-71
2023/01/02 01:21:14;;;;;;;1.63;1.38;;;;;;;13.59;98.90;100426.00;5021856;28;20124;-71
2023/01/02 01:23:39;;;;;;;4.47;1.40;;;;;;;13.63;98.12;100429.50;5026470;28;20032;-71
2023/01/02 01:26:08;;;;;;;3.47;1.70;;;;;;;13.50;98.09;100436.41;5036342;28;20078;-71
2023/01/02 01:28:34;;;;;;;1.60;1.08;;;;;;;13.68;96.77;100433.78;5022349;28;20060;-71
2023/01/02 01:31:04;;;;;;;4.47;1.58;;;;;;;13.62;97.36;100429.88;5037883;28;20039;-70
2023/01/02 01:33:30;;;;;;;2.50;1.52;;;;;;;13.60;97.24;100424.88;5035624;28;20521;-71
2023/01/02 01:36:13;;;;;;;3.65;1.77;;;;;;;13.55;98.31;100436.03;5037288;28;20032;-71
2023/01/02 01:38:40;;;;;;;2.13;1.90;;;;;;;13.59;98.17;100429.50;5036158;28;20036;-70
2023/01/02 01:41:06;;;;;;;4.28;1.77;;;;;;;13.54;98.61;100423.66;5044909;28;20017;-71
2023/01/02 01:43:37;;;;;;;4.32;1.90;;;;;;;13.53;98.76;100427.50;5032093;28;20037;-71
2023/01/02 01:46:08;;;;;;;4.93;1.83;;;;;;;13.46;99.03;100428.28;5035199;28;20041;-70
2023/01/02 01:48:34;;;;;;;3.72;2.00;;;;;;;13.68;97.95;100418.31;5029990;28;20040;-71
2023/01/02 01:50:59;;;;;;;3.63;2.08;;;;;;;13.70;97.64;100417.94;5029636;28;20410;-71
2023/01/02 01:53:25;;;;;;;4.55;1.65;;;;;;;13.65;98.62;100423.69;5028192;28;20094;-70
2023/01/02 01:55:56;;;;;;;2.90;1.83;;;;;;;13.64;98.61;100404.00;5031646;28;20140;-71
2023/01/02 01:58:29;;;;;;;3.58;1.77;;;;;;;13.71;98.37;100408.66;5033664;28;20387;-70
2023/01/02 02:00:55;;;;;;;4.47;2.42;;;;;;;13.64;97.79;100395.88;5047313;28;20033;-70
2023/01/02 02:03:25;;;;;;;2.97;1.65;;;;;;;13.43;98.80;100393.84;5032098;28;20057;-70
2023/01/02 02:05:50;;;;;;;2.72;1.60;;;;;;;13.38;99.46;100383.41;5033501;28;20116;-71
2023/01/02 02:08:20;;;;;;;5.45;1.75;;;;;;;13.41;99.95;100388.03;5034405;28;20116;-70
2023/01/02 02:10:46;;;;;;;4.10;2.17;;;;;;;13.38;100.00;100371.81;5037111;28;20064;-71
2023/01/02 02:13:13;;;;;;;2.15;1.50;;;;;;;13.25;100.00;100373.31;5044808;28;20025;-71
2023/01/02 02:15:59;;;;;;;6.40;2.03;;;;;;;13.35;100.00;100356.34;5045976;28;20033;-70
2023/01/02 02:18:41;;;;;;;2.63;1.70;;;;;;;13.48;100.00;100363.75;5028650;28;20037;-71
2023/01/02 02:21:12;;;;;;;4.68;1.90;;;;;;;13.34;100.00;100371.78;5029893;28;20461;-70
2023/01/02 02:24:02;;;;;;;3.22;1.38;;;;;;;13.45;100.00;100367.19;5031170;28;20471;-71
2023/01/02 02:26:40;;;;;;;3.40;1.60;;;;;;;13.45;100.00;100348.25;5023681;28;20041;-71
2023/01/02 02:29:49;;;;;;;2.53;1.75;;;;;;;13.65;98.67;100340.59;5028009;28;20083;-71
2023/01/02 02:32:19;;;;;;;7.32;2.00;;;;;;;13.64;99.58;100339.06;5026828;28;20041;-70
2023/01/02 02:34:58;;;;;;;2.30;1.70;;;;;;;13.62;98.94;100335.97;5025469;28;20036;-68
2023/01/02 02:37:43;;;;;;;2.97;1.63;;;;;;;13.44;99.92;100327.00;5032456;28;20029;-70
2023/01/02 02:40:44;;;;;;;2.60;1.90;;;;;;;13.47;100.00;100329.72;5040922;28;20037;-70
2023/01/02 02:43:23;;;;;;;3.55;2.13;;;;;;;13.48;100.00;100328.56;5032274;28;20034;-71
2023/01/02 02:46:06;;;;;;;7.68;2.05;;;;;;;13.57;100.00;100333.59;5031576;28;20106;-71
2023/01/02 02:48:49;;;;;;;7.15;1.80;;;;;;;13.37;100.00;100324.28;5025940;28;20072;-71
2023/01/02 02:51:30;;;;;;;2.97;1.98;;;;;;;13.49;100.00;100329.34;5032579;28;20041;-69
2023/01/02 02:54:08;;;;;;;7.57;2.38;;;;;;;13.35;100.00;100327.38;5045244;28;20040;-70
2023/01/02 02:56:35;;;;;;;3.80;1.90;;;;;;;13.55;100.00;100317.75;5032738;28;20155;-70
2023/01/02 02:59:01;;;;;;;2.30;1.83;;;;;;;13.55;100.00;100319.69;5031010;28;20486;-70
2023/01/02 03:01:28;;;;;;;4.72;2.08;;;;;;;13.51;100.00;100316.97;5032487;28;20048;-72
2023/01/02 03:03:54;;;;;;;3.83;1.70;;;;;;;13.40;100.00;100310.00;5038152;28;20049;-69
2023/01/02 03:06:28;;;;;;;8.18;2.10;;;;;;;13.40;100.00;100301.88;5014509;28;20103;-69
2023/01/02 03:09:17;;;;;;;7.03;2.13;;;;;;;13.44;100.00;100298.03;5031424;28;20033;-69
2023/01/02 03:12:12;;;;;;;3.47;1.35;;;;;;;13.51;100.00;100291.88;5030143;28;20048;-69
2023/01/02 03:14:43;;;;;;;4.45;1.50;;;;;;;13.45;100.00;100293.41;5025716;28;20067;-70
2023/01/02 03:17:45;;;;;;;6.10;1.75;;;;;;;13.36;100.00;100292.97;5030849;28;20087;-70
2023/01/02 03:20:14;;;;;;;3.70;1.60;;;;;;;13.43;100.00;100293.00;5027064;28;20446;-69
2023/01/02 03:22:45;;;;;;;3.95;1.90;;;;;;;13.43;100.00;100288.34;5022752;28;20091;-70
2023/01/02 03:25:14;;;;;;;4.78;2.13;;;;;;;13.53;100.00;100286.81;5019633;28;20033;-71
2023/01/02 03:28:02;;;;;;;3.15;1.50;;;;;;;13.49;100.00;100280.66;5029752;28;20685;-71
2023/01/02 03:30:32;;;;;;;3.75;1.42;;;;;;;13.83;100.00;100283.78;4954301;28;20143;-71
2023/01/02 03:33:01;;;;;;;2.47;1.58;;;;;;;13.40;100.00;100277.53;4963297;28;20038;-70
2023/01/02 03:35:33;;;;;;;7.82;1.88;;;;;;;13.45;100.00;100283.34;4962597;28;20459;-70
2023/01/02 03:38:02;;;;;;;11.65;2.22;;;;;;;13.57;100.00;100274.09;4979518;28;20039;-71
2023/01/02 03:40:34;;;;;;;4.53;1.70;;;;;;;13.58;100.00;100273.72;4967168;28;20035;-70
2023/01/02 03:43:10;;;;;;;6.30;1.90;;;;;;;13.58;100.00;100281.06;4953959;28;20098;-70
2023/01/02 03:45:41;;;;;;;2.58;1.88;;;;;;;13.71;100.00;100274.13;4975214;28;20536;-70
2023/01/02 03:48:19;;;;;;;4.53;2.13;;;;;;;13.71;100.00;100276.81;4971567;28;20093;-71
2023/01/02 03:50:49;;;;;;;9.05;2.00;;;;;;;13.87;100.00;100269.13;4977923;28;20047;-70
2023/01/02 03:53:15;;;;;;;8.80;1.90;;;;;;;13.64;100.00;100274.13;4958541;28;20034;-70
2023/01/02 03:56:02;;;;;;;3.85;1.52;;;;;;;13.84;100.00;100275.28;4979350;28;20041;-71
2023/01/02 03:58:54;;;;;;;3.35;1.80;;;;;;;13.91;100.00;100261.00;4930612;29;20173;-69
2023/01/02 04:01:27;;;;;;;;;;;;;;;14.01;100.00;100263.72;4890380;29;20072;-70
2023/01/02 04:04:03;;;;;;;1.52;1.35;;;;;;;14.10;100.00;100255.97;4917717;29;19915;-69
2023/01/02 04:06:34;;;;;;;5.32;1.92;;;;;;;14.12;100.00;100264.47;4925496;28;20433;-72
2023/01/02 04:09:19;;;;;;;2.63;1.67;;;;;;;14.14;100.00;100267.56;4989816;28;20050;-71
2023/01/02 04:11:49;;;;;;;6.97;2.22;;;;;;;14.11;100.00;100267.56;4970169;28;20412;-70
2023/01/02 04:14:47;;;;;;;5.32;2.08;;;;;;;14.18;100.00;100260.22;4968300;28;20045;-71
2023/01/02 04:17:16;;;;;;;5.03;1.27;;;;;;;14.07;100.00;100270.25;4964027;28;20047;-71
2023/01/02 04:19:52;;;;;;;5.22;1.65;;;;;;;14.09;100.00;100265.22;4973373;28;20395;-70
2023/01/02 04:22:23;;;;;;;6.00;1.80;;;;;;;13.97;100.00;100262.94;4989649;28;20054;-71
2023/01/02 04:24:52;;;;;;;;;;;;;;;14.08;100.00;100252.88;4967272;28;20653;-71
2023/01/02 04:27:27;;;;;;;5.38;2.25;;;;;;;14.22;100.00;100254.78;4975500;28;19936;-71
2023/01/02 04:29:55;;;;;;;3.75;1.83;;;;;;;14.09;100.00;100262.53;4971499;28;20058;-70
2023/01/02 04:32:28;;;;;;;4.57;1.63;;;;;;;14.24;100.00;100263.31;4989237;28;20133;-71
2023/01/02 04:34:55;;;;;;;3.42;1.95;;;;;;;14.25;100.00;100257.50;4997225;28;20061;-69
2023/01/02 04:37:29;;;;;;;8.50;1.90;;;;;;;14.31;100.00;100255.19;5030293;28;20545;-70
2023/01/02 04:40:00;;;;;;;6.07;1.80;;;;;;;14.41;99.97;100265.25;5029037;28;20545;-71
2023/01/02 04:42:25;;;;;;;4.03;1.80;;;;;;;14.41;99.66;100259.81;5028889;28;20172;-69
2023/01/02 04:44:51;;;;;;;7.80;1.83;;;;;;;14.27;100.00;100255.19;5026040;28;20484;-71
2023/01/02 04:47:17;;;;;;;5.95;1.70;;;;;;;14.37;99.70;100265.25;5029660;28;20040;-71
2023/01/02 04:49:42;;;;;;;4.25;2.03;;;;;;;14.34;100.00;100265.25;5013165;28;20144;-70
2023/01/02 04:52:07;;;;;;;2.85;2.38;;;;;;;14.20;100.00;100267.94;5026393;28;20471;-70
2023/01/02 04:54:33;;;;;;;5.72;2.00;;;;;;;14.18;100.00;100262.94;5030323;28;20069;-70
2023/01/02 04:56:59;;;;;;;2.80;1.63;;;;;;;13.88;100.00;100265.22;5031054;28;20120;-71
2023/01/02 04:59:24;;;;;;;2.10;1.80;;;;;;;14.01;100.00;100271.84;5025985;28;20073;-68
2023/01/02 05:01:50;;;;;;;2.17;1.50;;;;;;;14.09;100.00;100262.53;5045831;28;20119;-70
2023/01/02 05:04:15;;;;;;;7.70;2.17;;;;;;;14.13;100.00;100252.47;5018552;28;20034;-69
2023/01/02 05:06:41;;;;;;;4.15;1.60;;;;;;;14.18;100.00;100249.38;5028772;28;20483;-71
2023/01/02 05:09:06;;;;;;;4.53;1.70;;;;;;;14.27;100.00;100260.63;5030701;28;20493;-71
2023/01/02 05:11:32;;;;;;;5.72;2.20;;;;;;;14.34;100.00;100252.47;5029192;28;20048;-70
2023/01/02 05:13:57;;;;;;;6.38;2.38;;;;;;;14.10;100.00;100257.88;5026757;28;20025;-70
2023/01/02 05:16:22;;;;;;;6.35;1.70;;;;;;;14.03;100.00;100252.50;5030965;28;20030;-71
2023/01/02 05:18:48;;;;;;;7.55;1.60;;;;;;;14.02;100.00;100249.00;5030956;28;20095;-71
2023/01/02 05:24:00;;;;;;;7.40;2.03;;;;;;;14.04;100.00;100254.03;5045438;28;20034;-71
2023/01/02 05:26:26;;;;;;;3.13;1.70;;;;;;;14.10;100.00;100252.47;5031209;28;20490;-71
2023/01/02 05:28:53;;;;;;;2.95;1.58;;;;;;;14.16;100.00;100254.41;5033499;28;20087;-71
2023/01/02 05:31:18;;;;;;;3.40;1.70;;;;;;;14.18;99.92;100265.63;5033542;28;20119;-71
2023/01/02 05:33:43;;;;;;;4.95;1.60;;;;;;;13.98;100.00;100253.63;5031344;28;20108;-69
2023/01/02 05:36:09;;;;;;;4.97;1.63;;;;;;;14.09;100.00;100256.34;5034271;28;20045;-71
2023/01/02 05:38:35;;;;;;;3.95;2.28;;;;;;;14.11;100.00;100249.38;5034637;28;20025;-71
2023/01/02 05:41:02;;;;;;;12.43;2.13;;;;;;;14.10;100.00;100250.53;5042290;28;20453;-71
2023/01/02 05:43:35;;;;;;;2.85;1.90;;;;;;;14.19;100.00;100260.97;5032825;28;20045;-72
2023/01/02 05:46:12;;;;;;;2.75;1.52;;;;;;;14.15;100.00;100250.16;5031591;28;20151;-71
2023/01/02 05:48:38;;;;;;;3.85;1.73;;;;;;;14.17;100.00;100261.38;5034216;28;20494;-71
2023/01/02 05:51:05;;;;;;;3.47;2.00;;;;;;;14.24;100.00;100260.59;5034273;28;20037;-71
2023/01/02 05:53:31;;;;;;;4.35;1.65;;;;;;;14.24;100.00;100264.09;5049216;28;20044;-71
2023/01/02 05:56:08;;;;;;;2.55;1.70;;;;;;;14.19;100.00;100252.84;5033150;28;20091;-71
2023/01/02 05:58:35;;;;;;;6.45;2.58;;;;;;;14.20;100.00;100238.16;5033196;28;20033;-71
2023/01/02 06:01:06;;;;;;;5.55;1.80;;;;;;;14.26;100.00;100240.09;5031167;28;20017;-71
2023/01/02 06:03:31;;;;;;;6.43;2.63;;;;;;;14.27;100.00;100233.53;5032722;28;20041;-71
2023/01/02 06:06:01;;;;;;;5.22;2.05;;;;;;;14.13;100.00;100227.34;5032713;28;20075;-70
2023/01/02 06:08:27;;;;;;;2.17;1.73;;;;;;;14.04;100.00;100224.22;5034288;28;20044;-70
2023/01/02 06:10:52;;;;;;;3.38;1.75;;;;;;;14.07;100.00;100224.22;5030827;28;20024;-71
2023/01/02 06:13:17;;;;;;;3.53;1.73;;;;;;;14.15;100.00;100216.91;5033929;28;20025;-71
2023/01/02 06:15:43;;;;;;;4.28;1.65;;;;;;;14.21;100.00;100232.34;5033809;28;20045;-70
2023/01/02 06:18:08;;;;;;;2.60;1.67;;;;;;;14.22;100.00;100228.50;5035695;28;20020;-72
2023/01/02 06:20:34;;;;;;;2.60;1.50;;;;;;;14.18;100.00;100233.13;5033725;28;20475;-71
2023/01/02 06:22:59;;;;;;;7.30;2.10;;;;;;;14.34;100.00;100228.09;5032322;28;20080;-71
2023/01/02 06:25:24;;;;;;;4.82;1.98;;;;;;;14.42;100.00;100234.25;5032373;28;20025;-71
2023/01/02 06:27:50;;;;;;;5.88;1.65;;;;;;;14.35;100.00;100228.88;5045900;28;20026;-71
2023/01/02 06:30:15;;;;;;;8.80;2.38;;;;;;;14.39;100.00;100246.66;5030717;28;20025;-72
2023/01/02 06:32:41;;;;;;;2.25;1.40;;;;;;;14.27;100.00;100241.66;5034461;28;20123;-72
2023/01/02 06:35:07;;;;;;;5.75;1.63;;;;;;;14.28;100.00;100250.56;5029449;28;20547;-69
2023/01/02 06:37:32;;;;;;;4.50;1.38;;;;;;;14.32;100.00;100245.91;5031229;28;20029;-69
2023/01/02 06:39:57;;;;;;;2.92;1.80;;;;;;;14.31;100.00;100245.13;5027351;28;20382;-69
2023/01/02 06:42:23;;;;;;;3.50;1.50;;;;;;;14.32;100.00;100252.09;5031358;28;20036;-69
2023/01/02 06:44:48;;;;;;;5.50;1.77;;;;;;;14.34;100.00;100251.72;5038261;28;20032;-71
2023/01/02 06:47:14;;;;;;;3.15;1.70;;;;;;;14.41;100.00;100254.41;5049809;28;20033;-71
2023/01/02 06:49:39;;;;;;;6.20;1.80;;;;;;;14.48;100.00;100252.44;5012889;28;20044;-71
2023/01/02 06:52:25;;;;;;;9.93;1.63;;;;;;;14.45;100.00;100255.16;5042098;28;20049;-71
2023/01/02 06:54:50;;;;;;;7.82;1.92;;;;;;;14.38;100.00;100249.78;4939379;29;20039;-71
2023/01/02 06:57:16;;;;;;;3.40;1.60;;;;;;;14.40;100.00;100259.03;4951879;28;20404;-71
2023/01/02 06:59:41;;;;;;;2.88;1.77;;;;;;;14.24;100.00;100253.25;4952907;28;20141;-72
2023/01/02 07:02:10;;;;;;;3.92;1.75;;;;;;;14.37;100.00;100251.72;4959726;28;20038;-72
2023/01/02 07:04:35;;;;;;;6.45;1.90;;;;;;;14.37;100.00;100251.72;4955742;28;20067;-71
2023/01/02 07:07:01;;;;;;;2.65;1.73;;;;;;;14.42;100.00;100248.59;4973927;28;20038;-72
2023/01/02 07:09:26;;;;;;;10.50;2.15;;;;;;;14.43;100.00;100255.56;4980315;28;20412;-72
2023/01/02 07:11:52;;;;;;;3.17;1.63;;;;;;;14.47;100.00;100255.56;4978744;28;20097;-72
2023/01/02 07:14:18;;;;;;;3.97;1.60;;;;;;;14.42;100.00;100247.81;4963523;28;20428;-70
2023/01/02 07:16:44;;;;;;;3.60;1.80;;;;;;;14.30;100.00;100251.69;4974257;28;20035;-72
2023/01/02 07:19:09;;;;;;;4.00;1.45;;;;;;;14.33;100.00;100256.34;4970308;28;20086;-72
2023/01/02 07:21:35;;;;;;;7.22;1.60;;;;;;;14.35;100.00;100254.03;4957076;28;20038;-71
2023/01/02 07:24:00;;;;;;;2.22;1.67;;;;;;;14.56;100.00;100247.00;4967907;28;20129;-69
2023/01/02 07:26:26;;;;;;;3.88;2.60;;;;;;;14.54;100.00;100254.78;4983871;28;20117;-69
2023/01/02 07:28:52;;;;;;;2.50;1.20;;;;;;;14.56;100.00;100255.13;4982909;28;20751;-71
2023/01/02 07:31:19;;;;;;;2.45;1.63;;;;;;;14.58;100.00;100253.59;4974042;28;20501;-71
2023/01/02 07:34:05;;;;;;;2.95;1.58;;;;;;;14.56;100.00;100249.72;5035324;28;20038;-71
2023/01/02 07:36:31;;;;;;;4.47;1.65;;;;;;;14.60;100.00;100253.97;4990367;28;20073;-71
2023/01/02 07:38:56;;;;;;;4.50;1.90;;;;;;;14.67;100.00;100255.91;4973525;28;20046;-70
2023/01/02 07:41:23;;;;;;;3.13;1.63;;;;;;;14.70;100.00;100263.22;4989141;28;20054;-71
2023/01/02 07:43:50;;;;;;;3.05;2.00;;;;;;;14.59;100.00;100257.06;4972891;28;20034;-70
2023/01/02 07:46:18;;;;;;;3.35;1.50;;;;;;;14.48;100.00;100257.09;4990040;28;20075;-70
2023/01/02 07:48:44;;;;;;;5.18;2.03;;;;;;;14.56;100.00;100269.47;4985147;28;20038;-70
2023/01/02 07:51:11;;;;;;;3.67;1.70;;;;;;;14.62;100.00;100262.47;4973469;28;20038;-70
2023/01/02 07:53:37;;;;;;;2.15;1.52;;;;;;;14.70;100.00;100265.94;4971366;28;20049;-68
2023/01/02 07:56:04;;;;;;;5.13;1.77;;;;;;;14.53;100.00;100267.56;4981193;28;20180;-70
2023/01/02 07:58:29;;;;;;;4.68;1.70;;;;;;;14.55;100.00;100269.88;4994022;28;20050;-69
2023/01/02 08:00:55;;;;;;;2.97;1.63;;;;;;;14.50;100.00;100278.41;4989971;28;20540;-71
2023/01/02 08:03:22;;;;;;;6.10;2.13;;;;;;;14.62;100.00;100275.25;4989726;28;20105;-71
2023/01/02 08:05:49;;;;;;;2.85;1.98;;;;;;;14.57;100.00;100278.38;5009934;28;20124;-70
2023/01/02 08:08:14;;;;;;;6.47;2.45;;;;;;;14.55;100.00;100269.88;4994908;28;20062;-70
2023/01/02 08:10:43;;;;;;;6.82;1.42;;;;;;;14.61;100.00;100271.00;4996297;28;20034;-72
2023/01/02 08:13:09;;;;;;;4.30;1.80;;;;;;;14.61;100.00;100268.31;5014489;28;20397;-70
2023/01/02 08:15:36;;;;;;;4.30;2.15;;;;;;;14.65;100.00;100274.50;5056699;28;20091;-70
2023/01/02 08:18:03;;;;;;;2.78;1.42;;;;;;;14.74;100.00;100267.50;5046058;28;20037;-70
2023/01/02 08:20:29;;;;;;;3.20;1.75;;;;;;;14.78;100.00;100267.47;5034703;28;20033;-70
2023/01/02 08:22:56;;;;;;;4.47;1.98;;;;;;;14.74;100.00;100267.50;5044287;28;20036;-71
2023/01/02 08:25:21;;;;;;;3.80;1.70;;;;;;;14.75;100.00;100260.13;5045651;28;20028;-72
2023/01/02 08:27:47;;;;;;;3.63;1.83;;;;;;;14.69;100.00;100259.00;5041803;28;20139;-71
2023/01/02 08:30:13;;;;;;;5.13;1.75;;;;;;;14.71;100.00;100268.25;5040629;28;20035;-70
2023/01/02 08:32:39;;;;;;;3.15;1.75;;;;;;;14.66;100.00;100270.59;5044777;28;20586;-71
2023/01/02 08:35:06;;;;;;;2.35;1.60;;;;;;;14.75;100.00;100274.44;5036876;28;20142;-71
2023/01/02 08:37:32;;;;;;;3.55;1.90;;;;;;;14.74;100.00;100278.34;5030045;28;20032;-71
2023/01/02 08:39:58;;;;;;;4.35;1.60;;;;;;;14.75;100.00;100284.53;5049305;28;20524;-72
2023/01/02 08:42:23;;;;;;;4.35;1.77;;;;;;;14.79;100.00;100285.31;5036747;28;20029;-70
2023/01/02 08:44:49;;;;;;;2.40;1.80;;;;;;;14.76;100.00;100280.66;5004867;28;20033;-70
2023/01/02 08:47:15;;;;;;;3.33;2.00;;;;;;;14.85;100.00;100281.78;5043770;28;20394;-71
2023/01/02 08:49:43;;;;;;;5.88;2.72;;;;;;;14.76;100.00;100283.34;5044846;28;20018;-72
2023/01/02 08:52:08;;;;;;;4.45;2.13;;;;;;;14.74;100.00;100282.97;5027364;28;20490;-70
2023/01/02 08:54:34;;;;;;;4.38;2.20;;;;;;;14.78;100.00;100270.19;5044693;28;20041;-70
2023/01/02 08:57:00;;;;;;;7.22;2.05;;;;;;;14.72;100.00;100285.31;5042328;28;20053;-69
2023/01/02 08:59:26;;;;;;;3.33;1.88;;;;;;;14.76;100.00;100289.56;5021981;28;20057;-70
2023/01/02 09:01:53;;;;;;;4.30;1.77;;;;;;;14.78;100.00;100297.28;5028027;28;20037;-70
2023/01/02 09:04:21;;;;;;;3.60;2.00;;;;;;;14.78;100.00;100292.66;5036629;28;20043;-70
2023/01/02 09:06:47;;;;;;;8.65;1.98;;;;;;;14.80;100.00;100289.53;5035422;28;20620;-70
2023/01/02 09:09:15;;;;;;;2.25;1.40;;;;;;;14.76;100.00;100286.84;5034456;28;20065;-70
2023/01/02 09:11:49;;;;;;;3.80;2.13;;;;;;;14.67;100.00;100283.00;5036980;28;20029;-69
2023/01/02 09:14:20;;;;;;;3.20;1.98;;;;;;;14.73;100.00;100289.56;5037799;28;20060;-70
2023/01/02 09:16:51;;;;;;;7.72;2.15;;;;;;;14.75;100.00;100288.00;5036434;28;20037;-70
2023/01/02 09:19:17;;;;;;;5.38;1.73;;;;;;;14.77;100.00;100287.63;5041405;28;20045;-70
2023/01/02 09:21:43;;;;;;;2.60;1.73;;;;;;;14.85;100.00;100292.63;5047028;28;20096;-70
2023/01/02 09:24:09;;;;;;;2.75;1.60;;;;;;;14.90;100.00;100305.78;5049414;28;20049;-70
2023/01/02 09:26:36;;;;;;;6.88;1.63;;;;;;;15.00;100.00;100298.78;5052754;28;20059;-70
2023/01/02 09:29:03;;;;;;;3.10;1.83;;;;;;;15.02;100.00;100291.03;5051027;28;20025;-70
2023/01/02 09:31:32;;;;;;;2.42;1.80;;;;;;;15.03;100.00;100289.84;5048664;28;20033;-70
2023/01/02 09:33:58;;;;;;;4.68;2.10;;;;;;;15.09;100.00;100302.63;5039141;28;20030;-72
2023/01/02 09:36:23;;;;;;;3.40;1.48;;;;;;;15.02;100.00;100293.75;5038701;28;20402;-70
2023/01/02 09:38:57;;;;;;;3.35;1.50;;;;;;;15.13;100.00;100283.63;5015149;28;20041;-71
2023/01/02 09:41:26;;;;;;;;;;;;;;;15.06;100.00;100295.25;5049380;28;20493;-71
2023/01/02 09:44:17;;;;;;;2.58;1.83;;;;;;;15.07;100.00;100290.63;5054163;28;20023;-70
2023/01/02 09:46:59;;;;;;;4.50;1.90;;;;;;;15.08;100.00;100292.94;5035652;28;20094;-70
2023/01/02 09:49:32;;;;;;;3.53;1.80;;;;;;;15.23;100.00;100293.66;5048622;28;20092;-70
2023/01/02 09:52:00;;;;;;;7.03;1.75;;;;;;;15.28;99.93;100301.38;5047894;28;20292;-70
2023/01/02 09:54:47;;;;;;;3.47;1.80;;;;;;;15.18;99.27;100296.75;5050449;28;20166;-72
2023/01/02 09:57:29;;;;;;;7.57;1.98;;;;;;;15.23;98.75;100307.22;5051899;28;20059;-71
2023/01/02 10:00:16;;;;;;;4.82;1.52;;;;;;;15.16;98.96;100289.03;5031784;28;20042;-71
2023/01/02 10:02:59;;;;;;;6.97;1.90;;;;;;;15.22;98.63;100294.81;5036333;28;20033;-69
2023/01/02 10:05:37;;;;;;;4.57;1.80;;;;;;;15.22;98.66;100297.53;5044095;28;20082;-70
2023/01/02 10:08:23;;;;;;;4.95;1.77;;;;;;;15.17;99.08;100295.22;5038936;28;20034;-69
2023/01/02 10:11:21;;;;;;;4.25;2.00;;;;;;;15.21;98.84;100304.13;5029649;28;20034;-69
2023/01/02 10:14:03;;;;;;;8.88;2.42;;;;;;;15.05;98.79;100303.81;5024558;28;20075;-70
2023/01/02 10:16:35;;;;;;;3.10;1.48;;;;;;;15.06;99.28;100308.06;5027251;28;20029;-69
2023/01/02 10:19:06;;;;;;;2.42;1.63;;;;;;;15.07;99.26;100315.03;5028423;28;20049;-70
2023/01/02 10:21:36;;;;;;;8.15;1.90;;;;;;;15.22;98.62;100320.00;5032397;28;20048;-69
2023/01/02 10:24:10;;;;;;;3.40;1.95;;;;;;;15.23;98.22;100318.81;5035042;28;20083;-70
2023/01/02 10:26:40;;;;;;;4.20;1.70;;;;;;;15.16;97.85;100304.53;5038821;28;20071;-70
2023/01/02 10:29:19;;;;;;;7.55;2.95;;;;;;;15.22;97.88;100319.22;5034005;28;20033;-69
2023/01/02 10:31:51;;;;;;;2.58;1.70;;;;;;;15.37;97.19;100320.72;5032054;28;20060;-69
2023/01/02 10:34:22;;;;;;;1.20;1.08;;;;;;;15.41;96.35;100305.19;5035046;28;20037;-69
2023/01/02 10:36:49;;;;;;;3.58;2.17;;;;;;;15.43;96.47;100311.03;5038518;28;20041;-69
2023/01/02 10:39:25;;;;;;;2.70;1.77;;;;;;;15.31;96.14;100306.03;5024510;28;20486;-69
2023/01/02 10:41:57;;;;;;;2.65;1.55;;;;;;;15.39;95.71;100304.81;5021517;28;20037;-68
2023/01/02 10:44:31;;;;;;;3.60;1.50;;;;;;;15.30;95.30;100304.47;5034948;28;20037;-69
2023/01/02 10:46:58;;;;;;;3.05;1.33;;;;;;;15.31;95.89;100309.50;5050535;28;20041;-69
2023/01/02 10:49:25;;;;;;;2.13;1.50;;;;;;;15.33;96.05;100309.09;5050241;28;20032;-71
2023/01/02 10:52:02;;;;;;;2.20;1.70;;;;;;;15.27;95.30;100306.03;5048695;28;20116;-70
2023/01/02 10:54:27;;;;;;;2.78;1.73;;;;;;;15.31;94.91;100312.22;5031073;28;20164;-70
2023/01/02 10:56:53;;;;;;;3.05;1.58;;;;;;;15.38;95.14;100316.84;5023999;28;20128;-70
2023/01/02 10:59:27;;;;;;;3.17;1.58;;;;;;;15.28;95.50;100317.66;5046517;28;20039;-71
2023/01/02 11:01:56;;;;;;;2.38;1.58;;;;;;;15.38;94.96;100316.84;5040587;28;20033;-70
2023/01/02 11:04:25;;;;;;;2.75;1.40;;;;;;;15.26;95.61;100323.47;5038276;28;20041;-69
2023/01/02 11:07:02;;;;;;;2.38;1.73;;;;;;;15.33;95.10;100337.00;5036998;28;20036;-70
2023/01/02 11:09:34;;;;;;;4.57;1.63;;;;;;;15.17;95.89;100323.16;5029726;28;20177;-69
2023/01/02 11:12:06;;;;;;;1.92;1.42;;;;;;;15.16;96.72;100342.50;5056530;28;20048;-68
2023/01/02 11:14:33;;;;;;;2.22;1.50;;;;;;;15.28;95.91;100339.38;5045047;28;20504;-69
2023/01/02 11:17:19;;;;;;;3.00;1.65;;;;;;;15.32;95.40;100340.13;5044402;28;20402;-70
2023/01/02 11:19:50;;;;;;;5.07;1.55;;;;;;;15.39;94.82;100330.00;5045314;28;20043;-71
2023/01/02 11:22:19;;;;;;;1.50;1.08;;;;;;;15.33;95.79;100337.00;5047654;28;20083;-70
2023/01/02 11:25:01;;;;;;;3.28;1.58;;;;;;;15.40;95.16;100330.78;5046754;28;20029;-70
2023/01/02 11:27:42;;;;;;;3.13;1.70;;;;;;;15.47;95.07;100330.78;5046021;28;20037;-69
2023/01/02 11:30:28;;;;;;;3.83;1.15;;;;;;;15.39;95.14;100340.88;5033815;28;20069;-69
2023/01/02 11:33:05;;;;;;;1.92;1.20;;;;;;;15.36;95.30;100338.94;5043726;28;20398;-69
2023/01/02 11:35:43;;;;;;;3.80;1.65;;;;;;;15.44;94.91;100350.56;5056926;28;20037;-70
2023/01/02 11:38:14;;;;;;;1.67;1.40;;;;;;;15.32;95.05;100359.13;5047614;28;20067;-71